Time;durP1;ratioP1;P1;durP2;ratioP2;P2;SDS_P1;SDS_P2;PMS_P1;PMS_P2;Temp;Humidity;BMP_temperature;BMP_pressure;BME280_temperature;BME280_humidity;BME280_pressure;Samples;Min_cycle;Max_cycle;Signal;HPM_P1;HPM_P2
2023/12/15 00:01:31;;;;;;;;;13.33;10.67;;;;;;;;5005971;28;28513;-76
2023/12/15 00:03:57;;;;;;;;;10.00;10.00;;;;;;;;5008759;28;28793;-77
2023/12/15 00:06:22;;;;;;;;;13.00;9.33;;;;;;;;5008965;28;28674;-76
2023/12/15 00:08:47;;;;;;;;;7.00;6.00;;;;;;;;5008097;28;28590;-75
2023/12/15 00:11:12;;;;;;;;;9.33;8.33;;;;;;;;5009309;28;28548;-75
2023/12/15 00:13:37;;;;;;;;;10.00;10.00;;;;;;;;5009451;28;28472;-75
2023/12/15 00:16:03;;;;;;;;;8.00;8.00;;;;;;;;5009133;28;28575;-75
2023/12/15 00:18:28;;;;;;;;;11.00;10.00;;;;;;;;5002820;28;28661;-75
2023/12/15 00:20:53;;;;;;;;;13.00;10.00;;;;;;;;5019596;28;28643;-76
2023/12/15 00:23:19;;;;;;;;;8.00;8.00;;;;;;;;5003366;28;28830;-76
2023/12/15 00:25:45;;;;;;;;;10.67;8.00;;;;;;;;4997539;28;29160;-74
2023/12/15 00:28:10;;;;;;;;;10.33;10.33;;;;;;;;5008839;28;28493;-76
2023/12/15 00:30:35;;;;;;;;;9.67;9.67;;;;;;;;5008712;28;28912;-75
2023/12/15 00:33:00;;;;;;;;;12.67;11.00;;;;;;;;5010072;28;29490;-77
2023/12/15 00:35:26;;;;;;;;;12.00;9.00;;;;;;;;5005935;28;29781;-77
2023/12/15 00:37:51;;;;;;;;;13.00;12.00;;;;;;;;5007447;28;28490;-75
2023/12/15 00:40:16;;;;;;;;;13.67;12.67;;;;;;;;5027041;28;28526;-81
2023/12/15 00:42:42;;;;;;;;;15.33;13.00;;;;;;;;5005160;28;28489;-81
2023/12/15 00:45:08;;;;;;;;;10.00;10.00;;;;;;;;5002175;28;28569;-80
2023/12/15 00:47:33;;;;;;;;;9.33;9.33;;;;;;;;5011357;28;28483;-80
2023/12/15 00:49:59;;;;;;;;;14.67;13.33;;;;;;;;5012441;28;28513;-79
2023/12/15 00:52:24;;;;;;;;;12.00;11.00;;;;;;;;5011265;28;28552;-80
2023/12/15 00:54:49;;;;;;;;;17.33;12.00;;;;;;;;5011047;28;29962;-80
2023/12/15 00:57:14;;;;;;;;;17.00;12.00;;;;;;;;5002148;28;28528;-81
2023/12/15 00:59:40;;;;;;;;;11.00;11.00;;;;;;;;5012113;28;28497;-80
2023/12/15 01:02:05;;;;;;;;;10.33;10.33;;;;;;;;5012373;28;28835;-80
2023/12/15 01:04:31;;;;;;;;;14.00;12.00;;;;;;;;5010220;28;28653;-78
2023/12/15 01:06:57;;;;;;;;;13.67;10.33;;;;;;;;5003737;28;29307;-80
2023/12/15 01:09:22;;;;;;;;;15.00;11.67;;;;;;;;5007453;28;28472;-81
2023/12/15 01:11:48;;;;;;;;;10.50;10.50;;;;;;;;5009062;28;29117;-80
2023/12/15 01:14:13;;;;;;;;;12.67;12.67;;;;;;;;5011880;28;29311;-78
2023/12/15 01:16:48;;;;;;;;;14.67;11.67;;;;;;;;5010060;28;29651;-79
2023/12/15 01:19:14;;;;;;;;;11.00;8.33;;;;;;;;5006736;28;28533;-79
2023/12/15 01:21:39;;;;;;;;;18.67;12.33;;;;;;;;5010114;28;28483;-79
2023/12/15 01:24:05;;;;;;;;;11.67;11.67;;;;;;;;5001542;28;29880;-80
2023/12/15 01:26:30;;;;;;;;;16.00;11.33;;;;;;;;5015023;28;28918;-79
2023/12/15 01:28:55;;;;;;;;;13.00;12.00;;;;;;;;5012033;28;29019;-80
2023/12/15 01:31:21;;;;;;;;;13.67;12.33;;;;;;;;5013029;28;28457;-78
2023/12/15 01:33:49;;;;;;;;;16.33;16.00;;;;;;;;5008863;28;29583;-79
2023/12/15 01:36:16;;;;;;;;;9.67;9.67;;;;;;;;5010055;28;28693;-79
2023/12/15 01:38:41;;;;;;;;;16.67;14.67;;;;;;;;5008570;28;28595;-79
2023/12/15 01:41:06;;;;;;;;;12.67;12.00;;;;;;;;5004061;28;28622;-79
2023/12/15 01:43:31;;;;;;;;;13.67;13.33;;;;;;;;5010621;28;28607;-78
2023/12/15 01:45:57;;;;;;;;;16.67;14.67;;;;;;;;4994627;28;28854;-79
2023/12/15 01:48:22;;;;;;;;;15.67;12.00;;;;;;;;5000205;28;28544;-78
2023/12/15 01:50:47;;;;;;;;;15.00;12.67;;;;;;;;5010161;28;28596;-79
2023/12/15 01:53:13;;;;;;;;;13.67;12.00;;;;;;;;5008869;28;28573;-79
2023/12/15 01:55:38;;;;;;;;;14.00;13.00;;;;;;;;5009999;28;28584;-80
2023/12/15 01:58:04;;;;;;;;;14.00;13.67;;;;;;;;5011442;28;28412;-78
2023/12/15 02:00:30;;;;;;;;;15.33;14.00;;;;;;;;5006412;28;29267;-79
2023/12/15 02:02:55;;;;;;;;;15.00;13.67;;;;;;;;5016066;28;28325;-79
2023/12/15 02:05:21;;;;;;;;;12.67;12.67;;;;;;;;5010447;28;28529;-79
2023/12/15 02:07:46;;;;;;;;;17.67;16.67;;;;;;;;5009905;28;28430;-78
2023/12/15 02:10:11;;;;;;;;;15.00;15.00;;;;;;;;5008481;28;28930;-80
2023/12/15 02:12:37;;;;;;;;;14.67;14.00;;;;;;;;5004628;28;30508;-79
2023/12/15 02:15:02;;;;;;;;;15.00;13.00;;;;;;;;5010392;28;28596;-80
2023/12/15 02:17:27;;;;;;;;;15.67;13.67;;;;;;;;4991593;28;28383;-80
2023/12/15 02:19:52;;;;;;;;;16.33;14.00;;;;;;;;5000187;28;28817;-78
2023/12/15 02:22:21;;;;;;;;;17.33;14.00;;;;;;;;5002481;28;28877;-78
2023/12/15 02:24:46;;;;;;;;;15.67;15.67;;;;;;;;5010090;28;28835;-80
2023/12/15 02:27:11;;;;;;;;;20.33;12.67;;;;;;;;5008871;28;28611;-79
2023/12/15 02:29:37;;;;;;;;;17.67;15.00;;;;;;;;5010089;28;28638;-81
2023/12/15 02:32:03;;;;;;;;;18.00;14.00;;;;;;;;5008930;28;29964;-81
2023/12/15 02:34:28;;;;;;;;;16.67;16.00;;;;;;;;5008053;28;28492;-80
2023/12/15 02:36:53;;;;;;;;;20.67;15.67;;;;;;;;5009706;28;28812;-79
2023/12/15 02:39:18;;;;;;;;;14.67;14.67;;;;;;;;5007059;28;28714;-80
2023/12/15 02:41:44;;;;;;;;;19.67;13.33;;;;;;;;5007046;28;29646;-78
2023/12/15 02:44:10;;;;;;;;;15.00;12.67;;;;;;;;5002804;28;28644;-79
2023/12/15 02:46:38;;;;;;;;;11.33;11.33;;;;;;;;5008929;28;28817;-79
2023/12/15 02:49:03;;;;;;;;;12.67;12.33;;;;;;;;5003787;28;28430;-80
2023/12/15 02:51:29;;;;;;;;;22.33;16.33;;;;;;;;5001950;28;28765;-79
2023/12/15 02:53:56;;;;;;;;;20.67;16.33;;;;;;;;4994242;28;28395;-79
2023/12/15 02:56:21;;;;;;;;;19.33;16.33;;;;;;;;5003127;28;29242;-80
2023/12/15 02:58:46;;;;;;;;;15.67;13.00;;;;;;;;5005233;28;28525;-79
2023/12/15 03:01:11;;;;;;;;;15.00;14.00;;;;;;;;5008011;28;28545;-79
2023/12/15 03:03:37;;;;;;;;;18.33;16.33;;;;;;;;5007730;28;28847;-79
2023/12/15 03:06:02;;;;;;;;;19.00;18.67;;;;;;;;5009992;28;28469;-80
2023/12/15 03:08:28;;;;;;;;;21.67;19.00;;;;;;;;5010004;28;28511;-81
2023/12/15 03:10:57;;;;;;;;;24.67;21.67;;;;;;;;5008971;28;30090;-81
2023/12/15 03:13:22;;;;;;;;;23.00;22.33;;;;;;;;5010611;28;28462;-78
2023/12/15 03:15:47;;;;;;;;;22.00;19.00;;;;;;;;5011647;28;28800;-80
2023/12/15 03:18:13;;;;;;;;;26.00;23.67;;;;;;;;5012788;28;28766;-79
2023/12/15 03:20:38;;;;;;;;;21.33;20.00;;;;;;;;5003294;28;28720;-79
2023/12/15 03:23:04;;;;;;;;;15.00;15.00;;;;;;;;5009707;28;28812;-74
2023/12/15 03:25:30;;;;;;;;;19.67;19.00;;;;;;;;5006661;28;29110;-75
2023/12/15 03:27:55;;;;;;;;;20.33;20.00;;;;;;;;5005865;28;28008;-75
2023/12/15 03:30:20;;;;;;;;;20.67;19.33;;;;;;;;5008276;28;29826;-74
2023/12/15 03:32:45;;;;;;;;;21.33;18.00;;;;;;;;5009078;28;28857;-74
2023/12/15 03:35:10;;;;;;;;;19.67;15.33;;;;;;;;5005006;28;28711;-74
2023/12/15 03:37:36;;;;;;;;;21.33;18.00;;;;;;;;5004250;28;28480;-74
2023/12/15 03:40:03;;;;;;;;;22.33;18.00;;;;;;;;5002710;28;29433;-75
2023/12/15 03:42:28;;;;;;;;;20.33;18.33;;;;;;;;5015275;28;28925;-74
2023/12/15 03:44:53;;;;;;;;;18.33;18.00;;;;;;;;5014669;28;28798;-74
2023/12/15 03:47:18;;;;;;;;;25.67;22.67;;;;;;;;5003577;28;30528;-74
2023/12/15 03:49:45;;;;;;;;;23.33;19.33;;;;;;;;5011038;28;28499;-73
2023/12/15 03:52:10;;;;;;;;;23.00;21.00;;;;;;;;5010796;28;28833;-75
2023/12/15 03:54:35;;;;;;;;;19.67;18.00;;;;;;;;5007601;28;28872;-76
2023/12/15 03:57:01;;;;;;;;;15.33;11.33;;;;;;;;5002200;28;27931;-74
2023/12/15 03:59:26;;;;;;;;;11.67;11.33;;;;;;;;5007910;28;28585;-72
2023/12/15 04:01:51;;;;;;;;;19.67;18.67;;;;;;;;5007592;28;28516;-74
2023/12/15 04:04:17;;;;;;;;;21.67;19.33;;;;;;;;4999288;28;29020;-76
2023/12/15 04:06:42;;;;;;;;;19.00;17.67;;;;;;;;4997853;28;28802;-75
2023/12/15 04:09:09;;;;;;;;;18.67;16.00;;;;;;;;5008537;28;28833;-77
2023/12/15 04:11:34;;;;;;;;;21.67;18.00;;;;;;;;5002273;28;28955;-74
2023/12/15 04:14:00;;;;;;;;;18.33;17.00;;;;;;;;5007500;28;28566;-75
2023/12/15 04:16:25;;;;;;;;;18.00;18.00;;;;;;;;5010284;28;28679;-75
2023/12/15 04:18:50;;;;;;;;;22.00;17.33;;;;;;;;5010307;28;28511;-75
2023/12/15 04:21:15;;;;;;;;;18.00;18.00;;;;;;;;5010697;28;28528;-75
2023/12/15 04:23:41;;;;;;;;;18.00;15.00;;;;;;;;5009004;28;28592;-76
2023/12/15 04:26:07;;;;;;;;;20.67;18.33;;;;;;;;4994711;28;28635;-75
2023/12/15 04:28:32;;;;;;;;;21.33;19.33;;;;;;;;5005760;28;28536;-75
2023/12/15 04:30:57;;;;;;;;;17.50;17.00;;;;;;;;5011572;28;28340;-74
2023/12/15 04:33:22;;;;;;;;;14.33;13.33;;;;;;;;5008394;28;28643;-76
2023/12/15 04:35:48;;;;;;;;;18.00;16.33;;;;;;;;5004683;28;28720;-75
2023/12/15 04:38:13;;;;;;;;;16.00;15.00;;;;;;;;5001652;28;29650;-76
2023/12/15 04:40:38;;;;;;;;;19.33;16.33;;;;;;;;4990890;28;28559;-73
2023/12/15 04:43:03;;;;;;;;;22.00;18.00;;;;;;;;5008500;28;28567;-76
2023/12/15 04:45:28;;;;;;;;;17.33;17.00;;;;;;;;5002322;28;29004;-75
2023/12/15 04:47:54;;;;;;;;;17.33;15.00;;;;;;;;5006883;28;28467;-74
2023/12/15 04:50:20;;;;;;;;;20.00;19.00;;;;;;;;4998001;28;28706;-74
2023/12/15 04:52:45;;;;;;;;;19.33;15.00;;;;;;;;5009516;28;28866;-75
2023/12/15 04:55:14;;;;;;;;;20.67;18.67;;;;;;;;5011612;28;29572;-79
2023/12/15 04:57:39;;;;;;;;;17.67;16.00;;;;;;;;5009399;28;29662;-79
2023/12/15 05:00:05;;;;;;;;;24.67;19.00;;;;;;;;4999393;28;28510;-80
2023/12/15 05:02:30;;;;;;;;;26.00;16.67;;;;;;;;5010326;28;28426;-79
2023/12/15 05:04:55;;;;;;;;;20.33;15.33;;;;;;;;5010268;28;28827;-80
2023/12/15 05:07:21;;;;;;;;;23.00;17.00;;;;;;;;5010770;28;28455;-80
2023/12/15 05:09:47;;;;;;;;;21.00;18.67;;;;;;;;5009495;28;28421;-80
2023/12/15 05:12:12;;;;;;;;;18.33;15.33;;;;;;;;5011198;28;28584;-79
2023/12/15 05:14:37;;;;;;;;;22.33;17.00;;;;;;;;5007882;28;28398;-77
2023/12/15 05:17:03;;;;;;;;;18.33;17.33;;;;;;;;5007956;28;28566;-78
2023/12/15 05:19:28;;;;;;;;;29.00;23.00;;;;;;;;5010619;28;28936;-74
2023/12/15 05:21:53;;;;;;;;;21.00;16.00;;;;;;;;5001062;28;28461;-76
2023/12/15 05:24:18;;;;;;;;;21.33;17.67;;;;;;;;5008138;28;28675;-76
2023/12/15 05:26:44;;;;;;;;;26.67;17.00;;;;;;;;5001342;28;28492;-76
2023/12/15 05:29:10;;;;;;;;;18.00;17.33;;;;;;;;5000678;28;28853;-74
2023/12/15 05:31:36;;;;;;;;;22.33;16.00;;;;;;;;5008550;28;28891;-75
2023/12/15 05:34:01;;;;;;;;;21.00;20.33;;;;;;;;5004997;28;28937;-75
2023/12/15 05:36:26;;;;;;;;;42.00;33.00;;;;;;;;5005082;28;29330;-73
2023/12/15 05:38:52;;;;;;;;;36.00;30.67;;;;;;;;5006936;28;28618;-74
2023/12/15 05:41:18;;;;;;;;;24.67;19.33;;;;;;;;5008008;28;28511;-76
2023/12/15 05:43:44;;;;;;;;;27.67;25.00;;;;;;;;5004526;28;28850;-75
2023/12/15 05:46:09;;;;;;;;;29.67;29.00;;;;;;;;5007615;28;29849;-73
2023/12/15 05:48:35;;;;;;;;;23.33;20.33;;;;;;;;5010426;28;28825;-75
2023/12/15 05:51:00;;;;;;;;;26.33;20.33;;;;;;;;5006130;28;28741;-76
2023/12/15 05:53:26;;;;;;;;;33.00;29.00;;;;;;;;5008016;28;28524;-75
2023/12/15 05:55:52;;;;;;;;;20.00;18.33;;;;;;;;5008340;28;29236;-76
2023/12/15 05:58:17;;;;;;;;;22.67;19.00;;;;;;;;5008673;28;28999;-75
2023/12/15 06:00:43;;;;;;;;;24.33;20.67;;;;;;;;5008138;28;28772;-75
2023/12/15 06:03:08;;;;;;;;;25.00;19.33;;;;;;;;5007933;28;29182;-75
2023/12/15 06:05:37;;;;;;;;;18.33;16.33;;;;;;;;5006526;28;30499;-76
2023/12/15 06:08:02;;;;;;;;;20.33;15.33;;;;;;;;5008304;28;28694;-75
2023/12/15 06:10:28;;;;;;;;;24.33;19.00;;;;;;;;5013061;28;28640;-76
2023/12/15 06:12:53;;;;;;;;;19.33;18.33;;;;;;;;5008209;28;29635;-75
2023/12/15 06:15:18;;;;;;;;;19.33;18.67;;;;;;;;5006109;28;28651;-76
2023/12/15 06:17:43;;;;;;;;;20.00;18.00;;;;;;;;5005250;28;29482;-76
2023/12/15 06:20:10;;;;;;;;;21.33;18.67;;;;;;;;5010459;28;28758;-76
2023/12/15 06:23:09;;;;;;;;;17.00;16.00;;;;;;;;5020226;28;28417;-84
2023/12/15 06:26:27;;;;;;;;;20.33;18.33;;;;;;;;4967001;28;28935;-81
2023/12/15 06:44:15;;;;;;;;;;;;;;;;;;;;;
2023/12/15 06:47:10;;;;;;;;;19.33;19.00;;;;;;;;4976661;28;58038;-83
2023/12/15 06:52:49;;;;;;;;;18.00;17.00;;;;;;;;4957421;28;28400;-82
2023/12/15 06:58:45;;;;;;;;;25.00;22.33;;;;;;;;4898399;29;28643;-84
2023/12/15 07:14:17;;;;;;;;;19.00;18.67;;;;;;;;4955490;28;28768;-83
2023/12/15 07:17:32;;;;;;;;;;;;;;;;;;;;;
2023/12/15 07:23:37;;;;;;;;;;;;;;;;;;;;;
2023/12/15 07:48:07;;;;;;;;;21.67;20.67;;;;;;;;4976247;22;28041;-76
2023/12/15 07:50:33;;;;;;;;;29.33;25.67;;;;;;;;5045623;28;28460;-68
2023/12/15 07:52:59;;;;;;;;;29.67;23.33;;;;;;;;5050609;28;28588;-69
2023/12/15 07:55:33;;;;;;;;;32.33;25.67;;;;;;;;5045772;28;28721;-70
2023/12/15 07:57:59;;;;;;;;;23.33;19.00;;;;;;;;5047816;28;30608;-68
2023/12/15 08:00:24;;;;;;;;;27.67;21.33;;;;;;;;5058475;28;28518;-67
2023/12/15 08:02:50;;;;;;;;;28.33;25.00;;;;;;;;5071261;28;28687;-74
2023/12/15 08:05:15;;;;;;;;;21.00;19.00;;;;;;;;5074418;28;28768;-73
2023/12/15 08:07:44;;;;;;;;;25.67;20.33;;;;;;;;5077767;28;28603;-76
2023/12/15 08:10:09;;;;;;;;;26.33;23.00;;;;;;;;5061183;28;28271;-77
2023/12/15 08:12:34;;;;;;;;;27.33;23.67;;;;;;;;5055863;28;29609;-78
2023/12/15 08:15:00;;;;;;;;;27.00;24.67;;;;;;;;5068387;28;28500;-77
2023/12/15 08:17:25;;;;;;;;;26.33;24.67;;;;;;;;5066108;28;28843;-78
2023/12/15 08:19:51;;;;;;;;;23.00;21.33;;;;;;;;5066336;28;28453;-77
2023/12/15 08:22:16;;;;;;;;;36.00;30.67;;;;;;;;5069078;28;28801;-78
2023/12/15 08:24:42;;;;;;;;;32.33;25.33;;;;;;;;5044331;28;28637;-78
2023/12/15 08:27:08;;;;;;;;;26.33;23.67;;;;;;;;5046038;28;29645;-77
2023/12/15 08:29:33;;;;;;;;;33.00;28.33;;;;;;;;5046570;28;29390;-78
2023/12/15 08:31:58;;;;;;;;;28.00;23.33;;;;;;;;5069459;28;28393;-79
2023/12/15 08:34:25;;;;;;;;;26.00;21.00;;;;;;;;5069282;28;28552;-79
2023/12/15 08:36:50;;;;;;;;;25.33;23.67;;;;;;;;5066290;28;28453;-76
2023/12/15 08:39:15;;;;;;;;;27.67;24.67;;;;;;;;5047809;28;28563;-78
2023/12/15 08:41:41;;;;;;;;;24.33;22.67;;;;;;;;5069469;28;28691;-78
2023/12/15 08:44:06;;;;;;;;;31.00;28.00;;;;;;;;5051699;28;28744;-77
2023/12/15 08:46:32;;;;;;;;;34.67;29.33;;;;;;;;5070275;28;28528;-78
2023/12/15 08:48:57;;;;;;;;;31.67;25.67;;;;;;;;5051673;28;29725;-75
2023/12/15 08:51:22;;;;;;;;;32.00;30.00;;;;;;;;5147875;22;28701;-70
2023/12/15 08:53:48;;;;;;;;;36.00;30.67;;;;;;;;5048347;28;28721;-70
2023/12/15 08:56:13;;;;;;;;;40.00;28.00;;;;;;;;5030559;28;28643;-70
2023/12/15 08:58:38;;;;;;;;;34.33;29.00;;;;;;;;5045148;28;28614;-70
2023/12/15 09:01:03;;;;;;;;;36.67;29.00;;;;;;;;5048652;28;28430;-69
2023/12/15 09:03:29;;;;;;;;;26.67;24.00;;;;;;;;5045906;28;28604;-70
2023/12/15 09:05:54;;;;;;;;;36.33;32.67;;;;;;;;5048138;28;28673;-70
2023/12/15 09:08:19;;;;;;;;;39.67;31.33;;;;;;;;5040141;28;28780;-68
2023/12/15 09:10:46;;;;;;;;;30.00;26.00;;;;;;;;5030181;28;28884;-68
2023/12/15 09:13:12;;;;;;;;;37.33;29.00;;;;;;;;5026475;28;28482;-70
2023/12/15 09:15:37;;;;;;;;;27.67;23.67;;;;;;;;5045724;28;28962;-70
2023/12/15 09:18:03;;;;;;;;;33.67;26.67;;;;;;;;5025347;28;30486;-68
2023/12/15 09:20:28;;;;;;;;;34.00;28.00;;;;;;;;5042205;28;28802;-70
2023/12/15 09:22:55;;;;;;;;;29.67;22.33;;;;;;;;5030052;28;29053;-70
2023/12/15 09:25:20;;;;;;;;;34.33;29.00;;;;;;;;5046639;28;28501;-69
2023/12/15 09:27:45;;;;;;;;;30.33;26.33;;;;;;;;5047684;28;28541;-70
2023/12/15 09:30:11;;;;;;;;;32.67;30.67;;;;;;;;5048870;28;28362;-69
2023/12/15 09:32:36;;;;;;;;;35.33;31.00;;;;;;;;5048278;28;28368;-69
2023/12/15 09:35:01;;;;;;;;;33.33;27.33;;;;;;;;5048570;28;28611;-70
2023/12/15 09:37:26;;;;;;;;;35.33;27.00;;;;;;;;5048212;28;28520;-68
2023/12/15 09:39:51;;;;;;;;;26.67;25.67;;;;;;;;5043517;28;30317;-69
2023/12/15 09:42:17;;;;;;;;;27.67;26.33;;;;;;;;5048732;28;28488;-69
2023/12/15 09:44:42;;;;;;;;;39.00;27.67;;;;;;;;5048100;28;28829;-69
2023/12/15 09:47:07;;;;;;;;;29.00;25.67;;;;;;;;5047416;28;29315;-70
2023/12/15 09:49:33;;;;;;;;;32.00;27.33;;;;;;;;5042213;28;28800;-71
2023/12/15 09:52:01;;;;;;;;;32.00;23.67;;;;;;;;5024767;28;28526;-78
2023/12/15 09:54:27;;;;;;;;;31.67;26.33;;;;;;;;5050126;28;28905;-79
2023/12/15 09:56:53;;;;;;;;;34.33;27.00;;;;;;;;5046466;28;28986;-70
2023/12/15 09:59:19;;;;;;;;;24.33;21.67;;;;;;;;5024260;28;28773;-69
2023/12/15 10:01:44;;;;;;;;;24.33;22.00;;;;;;;;5040623;28;28421;-69
2023/12/15 10:04:10;;;;;;;;;24.00;22.33;;;;;;;;5045660;28;29231;-78
2023/12/15 10:06:36;;;;;;;;;26.67;21.67;;;;;;;;5046787;28;28545;-69
2023/12/15 10:09:02;;;;;;;;;23.33;23.33;;;;;;;;5047005;28;28546;-69
2023/12/15 10:11:28;;;;;;;;;22.00;21.00;;;;;;;;5046549;28;28477;-69
2023/12/15 10:13:54;;;;;;;;;30.33;21.67;;;;;;;;5046302;28;28588;-69
2023/12/15 10:16:20;;;;;;;;;24.67;21.33;;;;;;;;5050019;28;28488;-69
2023/12/15 10:18:45;;;;;;;;;24.67;20.33;;;;;;;;5048315;28;28405;-69
2023/12/15 10:21:10;;;;;;;;;26.33;21.33;;;;;;;;5042133;28;28674;-70
2023/12/15 10:23:36;;;;;;;;;24.33;18.33;;;;;;;;5046969;28;28578;-70
2023/12/15 10:26:05;;;;;;;;;7.67;5.67;;;;;;;;5046412;28;28939;-69
2023/12/15 10:28:34;;;;;;;;;33.00;30.33;;;;;;;;5047142;28;28538;-70
2023/12/15 10:30:59;;;;;;;;;19.67;15.33;;;;;;;;5046649;28;28508;-68
2023/12/15 10:33:26;;;;;;;;;27.00;21.67;;;;;;;;5046818;28;28982;-70
2023/12/15 10:35:53;;;;;;;;;22.67;18.33;;;;;;;;5039812;28;29233;-69
2023/12/15 10:38:18;;;;;;;;;31.67;24.33;;;;;;;;5044973;28;28476;-69
2023/12/15 10:40:43;;;;;;;;;25.67;21.67;;;;;;;;5038789;28;28793;-69
2023/12/15 10:43:13;;;;;;;;;22.67;19.67;;;;;;;;5046409;28;28767;-68
2023/12/15 10:45:38;;;;;;;;;20.33;18.00;;;;;;;;5028969;28;30484;-70
2023/12/15 10:48:03;;;;;;;;;30.33;25.33;;;;;;;;5027757;28;28402;-68
2023/12/15 10:50:29;;;;;;;;;27.33;26.33;;;;;;;;5030630;28;28449;-68
2023/12/15 10:52:55;;;;;;;;;27.67;23.67;;;;;;;;5046136;28;28538;-70
2023/12/15 10:55:23;;;;;;;;;26.33;21.33;;;;;;;;5026937;28;30809;-69
2023/12/15 10:57:48;;;;;;;;;22.33;21.00;;;;;;;;5045991;28;28391;-67
2023/12/15 11:00:17;;;;;;;;;24.00;22.00;;;;;;;;5045730;28;28955;-70
2023/12/15 11:02:43;;;;;;;;;25.67;22.67;;;;;;;;5044494;28;28811;-69
2023/12/15 11:05:09;;;;;;;;;23.67;22.33;;;;;;;;5032594;28;28866;-70
2023/12/15 11:07:34;;;;;;;;;35.67;24.67;;;;;;;;5027417;28;28722;-70
2023/12/15 11:10:00;;;;;;;;;29.33;24.00;;;;;;;;5038227;28;28886;-70
2023/12/15 11:12:28;;;;;;;;;24.00;22.67;;;;;;;;5037716;28;29162;-68
2023/12/15 11:14:57;;;;;;;;;26.00;24.33;;;;;;;;5045133;28;28615;-70
2023/12/15 11:17:23;;;;;;;;;25.00;24.00;;;;;;;;5051439;28;28766;-70
2023/12/15 11:19:50;;;;;;;;;33.33;27.00;;;;;;;;5053678;28;28760;-69
2023/12/15 11:22:17;;;;;;;;;30.33;25.67;;;;;;;;5016904;28;29368;-71
2023/12/15 11:24:43;;;;;;;;;30.33;26.00;;;;;;;;5025743;28;29938;-69
2023/12/15 11:27:10;;;;;;;;;31.00;26.67;;;;;;;;5046248;28;28622;-71
2023/12/15 11:29:35;;;;;;;;;30.00;23.67;;;;;;;;5044857;28;28443;-70
2023/12/15 11:32:19;;;;;;;;;29.67;26.00;;;;;;;;5028731;28;29092;-68
2023/12/15 11:34:46;;;;;;;;;29.00;23.00;;;;;;;;5044977;28;28485;-69
2023/12/15 11:37:11;;;;;;;;;33.33;26.33;;;;;;;;5045691;28;28452;-68
2023/12/15 11:39:39;;;;;;;;;36.67;29.33;;;;;;;;5046200;28;28582;-69
2023/12/15 11:42:04;;;;;;;;;38.33;31.67;;;;;;;;5039322;28;28528;-67
2023/12/15 11:44:30;;;;;;;;;31.67;27.67;;;;;;;;5035298;28;29214;-71
2023/12/15 11:46:55;;;;;;;;;37.00;31.00;;;;;;;;5028465;28;29462;-69
2023/12/15 11:49:22;;;;;;;;;44.33;35.67;;;;;;;;5047782;28;29019;-70
2023/12/15 11:51:47;;;;;;;;;34.33;29.00;;;;;;;;5047696;28;29091;-68
2023/12/15 11:54:12;;;;;;;;;35.33;27.67;;;;;;;;5049301;28;28996;-77
2023/12/15 11:56:38;;;;;;;;;31.67;26.33;;;;;;;;5049888;28;28703;-79
2023/12/15 11:59:03;;;;;;;;;33.67;27.00;;;;;;;;5049704;28;28487;-76
2023/12/15 12:01:35;;;;;;;;;32.67;27.67;;;;;;;;5048650;28;28053;-69
2023/12/15 12:04:04;;;;;;;;;29.67;23.00;;;;;;;;5042013;28;28519;-67
2023/12/15 12:06:30;;;;;;;;;38.00;32.67;;;;;;;;5049888;28;28302;-70
2023/12/15 12:08:55;;;;;;;;;30.67;24.33;;;;;;;;5032345;28;28439;-72
2023/12/15 12:11:21;;;;;;;;;31.33;27.00;;;;;;;;5051438;28;29025;-69
2023/12/15 12:13:56;;;;;;;;;26.67;23.33;;;;;;;;5049567;28;28402;-68
2023/12/15 12:16:21;;;;;;;;;34.00;25.00;;;;;;;;5057154;28;28327;-71
2023/12/15 12:18:48;;;;;;;;;28.00;23.00;;;;;;;;5064045;28;28822;-70
2023/12/15 12:21:14;;;;;;;;;23.67;20.00;;;;;;;;5038844;28;28580;-69
2023/12/15 12:23:40;;;;;;;;;25.00;20.67;;;;;;;;5049181;28;29418;-70
2023/12/15 12:26:06;;;;;;;;;14.33;10.67;;;;;;;;5049614;28;28266;-69
2023/12/15 12:28:48;;;;;;;;;24.00;18.67;;;;;;;;5038482;28;28523;-68
2023/12/15 12:31:15;;;;;;;;;19.33;17.00;;;;;;;;5049540;28;28679;-68
2023/12/15 12:33:43;;;;;;;;;19.00;18.67;;;;;;;;5043022;28;29032;-65
2023/12/15 12:36:08;;;;;;;;;24.00;19.33;;;;;;;;5038625;28;28884;-66
2023/12/15 12:38:34;;;;;;;;;22.67;18.00;;;;;;;;5031890;28;28519;-70
2023/12/15 12:41:03;;;;;;;;;22.67;17.33;;;;;;;;5031202;28;28604;-68
2023/12/15 12:43:28;;;;;;;;;21.67;17.67;;;;;;;;5049860;28;29117;-68
2023/12/15 12:45:53;;;;;;;;;22.33;18.00;;;;;;;;5049348;28;28405;-68
2023/12/15 12:48:19;;;;;;;;;19.00;17.67;;;;;;;;5031244;28;28735;-68
2023/12/15 12:50:45;;;;;;;;;23.00;15.67;;;;;;;;5049207;28;28532;-68
2023/12/15 12:53:11;;;;;;;;;18.33;16.33;;;;;;;;5048785;28;28548;-67
2023/12/15 12:55:36;;;;;;;;;21.33;17.00;;;;;;;;5048925;28;28969;-67
2023/12/15 12:58:02;;;;;;;;;20.00;17.33;;;;;;;;5037774;28;28598;-69
2023/12/15 13:00:27;;;;;;;;;22.00;16.00;;;;;;;;5036904;28;29066;-67
2023/12/15 13:02:53;;;;;;;;;20.33;17.00;;;;;;;;5038938;27;28905;-68
2023/12/15 13:05:18;;;;;;;;;18.33;17.00;;;;;;;;5035136;28;28892;-69
2023/12/15 13:07:43;;;;;;;;;21.67;18.00;;;;;;;;5046824;28;28558;-70
2023/12/15 13:10:09;;;;;;;;;17.67;15.00;;;;;;;;5047845;28;28576;-69
2023/12/15 13:12:34;;;;;;;;;18.67;15.00;;;;;;;;5039119;28;29357;-68
2023/12/15 13:15:00;;;;;;;;;21.33;14.00;;;;;;;;5043775;28;28854;-70
2023/12/15 13:17:25;;;;;;;;;21.67;17.67;;;;;;;;5024457;28;29015;-70
2023/12/15 13:19:51;;;;;;;;;13.00;9.00;;;;;;;;5043963;28;28974;-69
2023/12/15 13:22:17;;;;;;;;;17.33;13.67;;;;;;;;5045587;28;29479;-68
2023/12/15 13:24:52;;;;;;;;;13.00;11.33;;;;;;;;5048295;28;28771;-70
2023/12/15 13:27:18;;;;;;;;;12.00;8.00;;;;;;;;5049137;28;28532;-72
2023/12/15 13:29:43;;;;;;;;;14.33;9.33;;;;;;;;5021256;28;30786;-70
2023/12/15 13:32:08;;;;;;;;;12.67;11.00;;;;;;;;5047993;28;28989;-69
2023/12/15 13:34:33;;;;;;;;;12.33;10.67;;;;;;;;5028403;28;28414;-69
2023/12/15 13:36:59;;;;;;;;;19.00;10.33;;;;;;;;5036056;28;28739;-69
2023/12/15 13:39:24;;;;;;;;;14.67;10.67;;;;;;;;5044939;28;28586;-68
2023/12/15 13:41:51;;;;;;;;;11.33;11.33;;;;;;;;5044206;28;28381;-69
2023/12/15 13:44:18;;;;;;;;;10.33;8.33;;;;;;;;5047109;28;28514;-68
2023/12/15 13:46:44;;;;;;;;;16.33;10.33;;;;;;;;5047456;28;28971;-70
2023/12/15 13:49:09;;;;;;;;;16.67;10.00;;;;;;;;5043953;28;29219;-69
2023/12/15 13:51:35;;;;;;;;;17.00;9.67;;;;;;;;5051189;28;29331;-70
2023/12/15 13:54:01;;;;;;;;;14.67;10.33;;;;;;;;5053326;28;28828;-68
2023/12/15 13:56:28;;;;;;;;;14.33;10.67;;;;;;;;5045829;28;28586;-69
2023/12/15 13:58:53;;;;;;;;;15.00;10.00;;;;;;;;5028622;28;28658;-69
2023/12/15 14:01:19;;;;;;;;;14.33;11.67;;;;;;;;5045665;28;28656;-70
2023/12/15 14:03:44;;;;;;;;;14.00;10.33;;;;;;;;5019258;28;28942;-70
2023/12/15 14:06:11;;;;;;;;;16.33;11.00;;;;;;;;5046173;28;28491;-68
2023/12/15 14:08:37;;;;;;;;;13.67;9.33;;;;;;;;5042915;28;28582;-70
2023/12/15 14:11:02;;;;;;;;;15.33;11.33;;;;;;;;5030158;28;28609;-68
2023/12/15 14:13:27;;;;;;;;;17.33;10.00;;;;;;;;5014912;28;28425;-68
2023/12/15 14:15:53;;;;;;;;;11.67;9.33;;;;;;;;5024984;28;29233;-69
2023/12/15 14:18:18;;;;;;;;;17.33;10.00;;;;;;;;5032181;28;28548;-68
2023/12/15 14:20:43;;;;;;;;;10.67;9.67;;;;;;;;5028473;28;29022;-70
2023/12/15 14:23:09;;;;;;;;;9.67;9.67;;;;;;;;5027783;28;28934;-70
2023/12/15 14:25:34;;;;;;;;;9.67;8.33;;;;;;;;5017687;28;28705;-69
2023/12/15 14:28:00;;;;;;;;;8.67;5.33;;;;;;;;5027550;28;28481;-69
2023/12/15 14:33:00;;;;;;;;;7.33;6.67;;;;;;;;5000412;26;28759;-69
2023/12/15 14:35:25;;;;;;;;;10.33;8.00;;;;;;;;5026261;28;28939;-68
2023/12/15 14:37:51;;;;;;;;;15.00;10.00;;;;;;;;5022896;28;28435;-68
2023/12/15 14:40:16;;;;;;;;;13.00;8.33;;;;;;;;5031813;28;28503;-68
2023/12/15 14:42:44;;;;;;;;;10.33;8.67;;;;;;;;5030276;28;28795;-69
2023/12/15 14:45:09;;;;;;;;;10.67;9.33;;;;;;;;5024247;28;28771;-70
2023/12/15 14:47:35;;;;;;;;;15.67;11.00;;;;;;;;5027990;28;28835;-70
2023/12/15 14:50:00;;;;;;;;;7.67;6.67;;;;;;;;5028185;28;28496;-69
2023/12/15 14:52:25;;;;;;;;;16.00;12.67;;;;;;;;5027308;28;28805;-68
2023/12/15 14:54:51;;;;;;;;;12.67;11.00;;;;;;;;5028503;28;28495;-70
2023/12/15 14:57:16;;;;;;;;;11.00;8.67;;;;;;;;5024349;28;28505;-69
2023/12/15 14:59:42;;;;;;;;;20.00;13.00;;;;;;;;5020383;28;28570;-70
2023/12/15 15:02:07;;;;;;;;;18.33;12.00;;;;;;;;5017994;28;28809;-69
2023/12/15 15:04:34;;;;;;;;;17.67;9.33;;;;;;;;5025589;28;28462;-67
2023/12/15 15:06:59;;;;;;;;;14.33;11.33;;;;;;;;5014581;28;28728;-69
2023/12/15 15:09:25;;;;;;;;;13.00;11.33;;;;;;;;5010102;28;30153;-69
2023/12/15 15:11:50;;;;;;;;;18.67;11.00;;;;;;;;5028007;28;29186;-68
2023/12/15 15:14:16;;;;;;;;;9.00;9.00;;;;;;;;5023523;28;28446;-68
2023/12/15 15:16:41;;;;;;;;;13.33;8.67;;;;;;;;5019223;28;28734;-68
2023/12/15 15:19:07;;;;;;;;;12.67;9.67;;;;;;;;5026647;28;28743;-69